Time;durP1;ratioP1;P1;durP2;ratioP2;P2;SDS_P1;SDS_P2;PMS_P1;PMS_P2;Temp;Humidity;BMP_temperature;BMP_pressure;BME280_temperature;BME280_humidity;BME280_pressure;Samples;Min_cycle;Max_cycle;Signal;HPM_P1;HPM_P2
2023/04/18 00:00:23;;;;;;;9.90;7.72;;;6.30;99.90;;;;;;5049241;28;20045;-79
2023/04/18 00:02:52;;;;;;;13.00;8.07;;;6.30;99.90;;;;;;5048518;28;20052;-79
2023/04/18 00:05:19;;;;;;;9.35;7.22;;;6.30;99.90;;;;;;5047274;28;20403;-79
2023/04/18 00:07:45;;;;;;;11.73;7.40;;;6.20;99.90;;;;;;5081919;28;20056;-79
2023/04/18 00:10:11;;;;;;;10.68;7.72;;;6.20;99.90;;;;;;5050490;28;20049;-79
2023/04/18 00:12:38;;;;;;;17.10;9.48;;;6.20;99.90;;;;;;5047321;28;21450;-79
2023/04/18 00:15:06;;;;;;;12.48;8.50;;;6.30;99.90;;;;;;5045017;28;20072;-79
2023/04/18 00:17:31;;;;;;;10.57;8.48;;;6.30;99.90;;;;;;5049330;28;20048;-79
2023/04/18 00:19:57;;;;;;;9.55;8.55;;;6.30;99.90;;;;;;5046056;28;20629;-79
2023/04/18 00:22:23;;;;;;;9.55;8.07;;;6.20;99.90;;;;;;5046709;28;20514;-79
2023/04/18 00:24:50;;;;;;;11.23;7.72;;;6.20;99.90;;;;;;5047736;28;20104;-79
2023/04/18 00:27:20;;;;;;;12.77;8.63;;;6.10;99.90;;;;;;5078873;28;20044;-79
2023/04/18 00:29:46;;;;;;;8.85;7.65;;;6.10;99.90;;;;;;5049304;28;20037;-79
2023/04/18 00:32:12;;;;;;;12.00;8.57;;;6.10;99.90;;;;;;5047736;28;20067;-79
2023/04/18 00:34:39;;;;;;;13.52;7.82;;;6.10;99.90;;;;;;5047964;28;20428;-79
2023/04/18 00:37:05;;;;;;;11.60;9.32;;;6.10;99.90;;;;;;5046167;28;20101;-79
2023/04/18 00:39:31;;;;;;;10.25;7.32;;;6.20;99.90;;;;;;5079420;28;20098;-79
2023/04/18 00:41:56;;;;;;;9.75;8.02;;;6.10;99.90;;;;;;5049174;28;20414;-79
2023/04/18 00:44:22;;;;;;;10.43;7.90;;;6.20;99.90;;;;;;5046368;28;20112;-79
2023/04/18 00:46:47;;;;;;;10.32;7.93;;;6.10;99.90;;;;;;5079305;28;20040;-79
2023/04/18 00:49:14;;;;;;;15.98;8.20;;;6.10;99.90;;;;;;5046731;28;20051;-79
2023/04/18 00:51:39;;;;;;;12.43;8.48;;;6.10;99.90;;;;;;5046906;28;20392;-78
2023/04/18 00:54:07;;;;;;;12.40;7.90;;;6.10;99.90;;;;;;5048550;28;20047;-79
2023/04/18 00:56:34;;;;;;;9.65;8.23;;;6.00;99.90;;;;;;5044460;28;20063;-81
2023/04/18 00:59:00;;;;;;;11.07;8.95;;;6.00;99.90;;;;;;5049468;28;20051;-79
2023/04/18 01:01:26;;;;;;;8.73;7.78;;;6.00;99.90;;;;;;5079093;28;20479;-79
2023/04/18 01:03:51;;;;;;;10.52;8.15;;;6.00;99.90;;;;;;5049041;28;20056;-79
2023/04/18 01:06:17;;;;;;;13.50;9.02;;;6.00;99.90;;;;;;5049318;28;20034;-79
2023/04/18 01:08:43;;;;;;;12.10;8.90;;;6.00;99.90;;;;;;5047043;28;20067;-79
2023/04/18 01:11:09;;;;;;;10.20;8.05;;;6.00;99.90;;;;;;5047328;28;20039;-79
2023/04/18 01:13:35;;;;;;;11.30;8.13;;;6.00;99.90;;;;;;5048890;28;20622;-79
2023/04/18 01:16:00;;;;;;;9.23;7.75;;;6.00;99.90;;;;;;5048418;28;20040;-79
2023/04/18 01:18:26;;;;;;;10.30;8.05;;;5.90;99.90;;;;;;5045215;28;20045;-79
2023/04/18 01:20:55;;;;;;;10.15;7.63;;;6.10;99.90;;;;;;5048580;28;20041;-79
2023/04/18 01:23:21;;;;;;;9.70;7.25;;;6.00;99.90;;;;;;5046341;28;20071;-79
2023/04/18 01:25:50;;;;;;;8.38;7.47;;;6.10;99.90;;;;;;5044380;28;20532;-79
2023/04/18 01:28:16;;;;;;;9.80;7.60;;;6.10;99.90;;;;;;5045178;28;20120;-79
2023/04/18 01:30:42;;;;;;;10.48;8.20;;;6.00;99.90;;;;;;5048189;28;20049;-79
2023/04/18 01:33:08;;;;;;;10.00;7.53;;;6.00;99.90;;;;;;5045789;28;20442;-79
2023/04/18 01:35:33;;;;;;;10.18;7.78;;;6.00;99.90;;;;;;5049248;28;20045;-78
2023/04/18 01:38:00;;;;;;;9.05;7.93;;;6.10;99.90;;;;;;5050046;28;20044;-79
2023/04/18 01:40:25;;;;;;;8.70;7.05;;;6.10;99.90;;;;;;5047772;28;20496;-79
2023/04/18 01:42:51;;;;;;;9.55;7.80;;;6.00;99.90;;;;;;5045264;28;20049;-80
2023/04/18 01:45:18;;;;;;;11.20;8.38;;;6.00;99.90;;;;;;5044724;28;20376;-79
2023/04/18 01:47:44;;;;;;;14.07;8.05;;;6.00;99.90;;;;;;5044701;28;20036;-78
2023/04/18 01:50:10;;;;;;;9.35;7.07;;;6.00;99.90;;;;;;5048068;28;20046;-79
2023/04/18 01:52:36;;;;;;;12.05;7.88;;;6.00;99.90;;;;;;5063249;28;20090;-79
2023/04/18 01:55:02;;;;;;;10.68;8.43;;;6.00;99.90;;;;;;5045143;28;20045;-79
2023/04/18 01:57:28;;;;;;;8.57;7.65;;;6.00;99.90;;;;;;5048358;28;20048;-79
2023/04/18 01:59:54;;;;;;;10.63;7.13;;;6.00;99.90;;;;;;5044013;28;20045;-79
2023/04/18 02:02:19;;;;;;;9.75;7.95;;;6.00;99.90;;;;;;5045429;28;20135;-80
2023/04/18 02:04:45;;;;;;;11.82;8.57;;;6.00;99.90;;;;;;5050339;28;20036;-79
2023/04/18 02:07:11;;;;;;;11.38;8.25;;;6.00;99.90;;;;;;5049510;28;20120;-79
2023/04/18 02:09:36;;;;;;;10.13;8.02;;;6.00;99.90;;;;;;5047559;28;20048;-79
2023/04/18 02:12:02;;;;;;;9.13;7.32;;;6.00;99.90;;;;;;5048986;28;20450;-79
2023/04/18 02:14:31;;;;;;;9.05;7.97;;;6.00;99.90;;;;;;5047554;28;20041;-79
2023/04/18 02:16:57;;;;;;;10.50;7.88;;;6.10;99.90;;;;;;5047111;28;20049;-79
2023/04/18 02:19:23;;;;;;;13.30;9.13;;;6.00;99.90;;;;;;5046578;28;20457;-78
2023/04/18 02:21:49;;;;;;;9.68;8.52;;;6.00;99.90;;;;;;5047442;28;20114;-79
2023/04/18 02:24:15;;;;;;;15.75;9.27;;;6.00;99.90;;;;;;5065499;28;20122;-79
2023/04/18 02:26:40;;;;;;;10.25;8.32;;;6.10;99.90;;;;;;5048641;28;20033;-79
2023/04/18 02:29:06;;;;;;;10.52;8.88;;;6.00;99.90;;;;;;5046583;28;20052;-78
2023/04/18 02:31:32;;;;;;;9.75;8.75;;;6.10;99.90;;;;;;5047985;28;20128;-78
2023/04/18 02:33:57;;;;;;;9.88;8.10;;;6.10;99.90;;;;;;5045889;28;20078;-79
2023/04/18 02:36:25;;;;;;;10.95;9.23;;;6.10;99.90;;;;;;5047423;28;20053;-79
2023/04/18 02:38:51;;;;;;;11.13;8.98;;;6.10;99.90;;;;;;5052060;28;20084;-79
2023/04/18 02:41:18;;;;;;;12.02;9.70;;;6.20;99.90;;;;;;5084673;28;20072;-79
2023/04/18 02:43:44;;;;;;;10.35;8.32;;;6.30;99.90;;;;;;5047224;28;20116;-78
2023/04/18 02:46:10;;;;;;;11.32;9.68;;;6.50;99.90;;;;;;5051188;28;20037;-79
2023/04/18 02:48:35;;;;;;;11.80;9.88;;;6.30;99.90;;;;;;5048730;28;20434;-79
2023/04/18 02:51:06;;;;;;;10.45;9.13;;;6.30;99.90;;;;;;5048816;28;20078;-78
2023/04/18 02:53:32;;;;;;;16.50;9.95;;;6.40;99.90;;;;;;5049378;28;20136;-78
2023/04/18 02:55:58;;;;;;;10.75;9.57;;;6.40;99.90;;;;;;5050344;28;20814;-78
2023/04/18 02:58:24;;;;;;;13.05;8.70;;;6.40;99.90;;;;;;5049945;28;20045;-78
2023/04/18 03:00:52;;;;;;;11.20;9.07;;;6.40;99.90;;;;;;5051602;28;20037;-78
2023/04/18 03:03:17;;;;;;;11.07;9.23;;;6.40;99.90;;;;;;5050371;28;20041;-78
2023/04/18 03:05:43;;;;;;;10.52;9.45;;;6.50;99.90;;;;;;5049223;28;20033;-78
2023/04/18 03:08:09;;;;;;;10.68;9.57;;;6.40;99.90;;;;;;5065723;28;20041;-78
2023/04/18 03:10:34;;;;;;;9.95;8.70;;;6.50;99.90;;;;;;5048866;28;20114;-79
2023/04/18 03:13:00;;;;;;;10.77;8.38;;;6.50;99.90;;;;;;5046723;28;20630;-78
2023/04/18 03:15:26;;;;;;;12.30;9.10;;;6.40;99.90;;;;;;5049732;28;20060;-79
2023/04/18 03:17:52;;;;;;;11.82;9.13;;;6.50;99.90;;;;;;5082456;28;20045;-79
2023/04/18 03:20:17;;;;;;;10.15;8.93;;;6.40;99.90;;;;;;5051732;28;20094;-79
2023/04/18 03:22:43;;;;;;;12.23;9.18;;;6.40;99.90;;;;;;5050461;28;20048;-79
2023/04/18 03:25:09;;;;;;;10.07;9.02;;;6.40;99.90;;;;;;5045872;28;20049;-79
2023/04/18 03:27:35;;;;;;;10.82;8.68;;;6.40;99.90;;;;;;5081831;28;20045;-78
2023/04/18 03:30:01;;;;;;;14.20;8.88;;;6.40;99.90;;;;;;5051287;28;20049;-79
2023/04/18 03:32:26;;;;;;;9.65;8.27;;;6.40;99.90;;;;;;5048568;28;20053;-79
2023/04/18 03:34:52;;;;;;;12.25;9.57;;;6.40;99.90;;;;;;5050688;28;20037;-79
2023/04/18 03:37:17;;;;;;;11.40;9.63;;;6.40;99.90;;;;;;5048213;28;20106;-79
2023/04/18 03:39:43;;;;;;;11.75;8.55;;;6.40;99.90;;;;;;5049683;28;20057;-79
2023/04/18 03:42:09;;;;;;;9.38;8.43;;;6.40;99.90;;;;;;5052317;28;20037;-79
2023/04/18 03:44:34;;;;;;;10.18;9.02;;;6.40;99.90;;;;;;5048010;28;20045;-79
2023/04/18 03:47:00;;;;;;;10.98;8.45;;;6.40;99.90;;;;;;5048138;28;20033;-79
2023/04/18 03:49:26;;;;;;;15.32;9.60;;;6.30;99.90;;;;;;5048785;28;20080;-79
2023/04/18 03:51:51;;;;;;;13.30;8.82;;;6.30;99.90;;;;;;5046847;28;20036;-78
2023/04/18 03:54:17;;;;;;;11.52;9.07;;;6.40;99.90;;;;;;5047539;28;20037;-78
2023/04/18 03:56:43;;;;;;;10.20;8.73;;;6.40;99.90;;;;;;5046522;28;20036;-79
2023/04/18 03:59:09;;;;;;;9.18;8.05;;;6.30;99.90;;;;;;5049474;28;20136;-79
2023/04/18 04:01:35;;;;;;;11.35;9.02;;;6.40;99.90;;;;;;5046012;28;20049;-78
2023/04/18 04:04:01;;;;;;;9.57;8.25;;;6.40;99.90;;;;;;5049497;28;20040;-79
2023/04/18 04:06:27;;;;;;;13.30;8.43;;;6.50;99.90;;;;;;5045089;28;20055;-78
2023/04/18 04:08:53;;;;;;;9.05;8.15;;;6.40;99.90;;;;;;5047588;28;20128;-78
2023/04/18 04:11:18;;;;;;;10.60;8.45;;;6.40;99.90;;;;;;5047602;28;20045;-79
2023/04/18 04:13:44;;;;;;;9.52;8.05;;;6.40;99.90;;;;;;5048764;28;20076;-79
2023/04/18 04:16:09;;;;;;;8.85;7.88;;;6.40;99.90;;;;;;5043834;28;20051;-79
2023/04/18 04:18:35;;;;;;;12.25;8.85;;;6.50;99.90;;;;;;5079527;28;20060;-79
2023/04/18 04:21:04;;;;;;;12.40;8.88;;;6.40;99.90;;;;;;5051455;28;20105;-79
2023/04/18 04:23:29;;;;;;;13.82;9.88;;;6.40;99.90;;;;;;5045511;28;20199;-79
2023/04/18 04:25:55;;;;;;;12.00;8.98;;;6.40;99.90;;;;;;5044508;28;20084;-78
2023/04/18 04:28:21;;;;;;;13.57;9.52;;;6.40;99.90;;;;;;5046980;28;20045;-79
2023/04/18 04:30:51;;;;;;;12.15;9.00;;;6.40;99.90;;;;;;5046506;28;20036;-80
2023/04/18 04:33:18;;;;;;;9.23;8.27;;;6.40;99.90;;;;;;5045193;28;20049;-79
2023/04/18 04:35:46;;;;;;;10.25;8.90;;;6.40;99.90;;;;;;5048147;28;20037;-79
2023/04/18 04:38:14;;;;;;;13.43;8.93;;;6.40;99.90;;;;;;5045939;28;20093;-78
2023/04/18 04:40:40;;;;;;;10.10;8.55;;;6.40;99.90;;;;;;5043896;28;20065;-79
2023/04/18 04:43:05;;;;;;;15.27;9.63;;;6.40;99.90;;;;;;5047789;28;20174;-79
2023/04/18 04:45:32;;;;;;;11.90;8.90;;;6.40;99.90;;;;;;5048360;28;20065;-79
2023/04/18 04:47:58;;;;;;;11.85;9.07;;;6.40;99.90;;;;;;5061532;28;20659;-79
2023/04/18 04:50:24;;;;;;;10.90;8.18;;;6.50;99.90;;;;;;5044625;28;20044;-80
2023/04/18 04:52:50;;;;;;;11.07;8.85;;;6.50;99.90;;;;;;5031372;28;20066;-80
2023/04/18 04:55:16;;;;;;;16.45;8.20;;;6.50;99.90;;;;;;5044982;28;20616;-79
2023/04/18 04:57:43;;;;;;;10.35;8.73;;;6.60;99.90;;;;;;5038012;28;20033;-79
2023/04/18 05:00:10;;;;;;;12.95;8.30;;;6.50;99.90;;;;;;5044242;28;20124;-79
2023/04/18 05:02:35;;;;;;;10.45;7.90;;;6.60;99.90;;;;;;5043322;28;20506;-79
2023/04/18 05:05:01;;;;;;;10.30;8.20;;;6.60;99.90;;;;;;5043530;28;20034;-80
2023/04/18 05:07:27;;;;;;;10.50;8.23;;;6.60;99.90;;;;;;5040998;28;20458;-79
2023/04/18 05:09:53;;;;;;;8.93;7.93;;;6.70;99.90;;;;;;5061852;28;20056;-79
2023/04/18 05:12:18;;;;;;;9.15;8.25;;;6.70;99.90;;;;;;5038767;28;20052;-76
2023/04/18 05:14:44;;;;;;;13.07;7.97;;;6.80;99.90;;;;;;5040967;28;20411;-80
2023/04/18 05:17:09;;;;;;;13.00;8.63;;;6.70;99.90;;;;;;5078362;28;20037;-80
2023/04/18 05:19:35;;;;;;;11.18;9.20;;;6.80;99.90;;;;;;5048555;28;20071;-79
2023/04/18 05:22:00;;;;;;;8.95;8.05;;;6.80;99.90;;;;;;5044145;28;20049;-78
2023/04/18 05:24:26;;;;;;;8.68;7.13;;;6.80;99.90;;;;;;5044998;28;20063;-79
2023/04/18 05:26:52;;;;;;;8.82;7.93;;;6.80;99.90;;;;;;5043724;28;20037;-80
2023/04/18 05:29:18;;;;;;;11.95;7.97;;;6.80;99.90;;;;;;5043972;28;20087;-79
2023/04/18 05:31:43;;;;;;;9.82;7.65;;;6.80;99.90;;;;;;5058989;28;20495;-80
2023/04/18 05:34:09;;;;;;;10.30;8.02;;;6.90;99.90;;;;;;5040582;28;20033;-79
2023/04/18 05:36:35;;;;;;;9.95;8.63;;;6.90;99.90;;;;;;5046979;28;20038;-78
2023/04/18 05:39:00;;;;;;;9.18;8.18;;;6.90;99.90;;;;;;5040914;28;20033;-79
2023/04/18 05:41:26;;;;;;;12.60;7.90;;;6.90;99.90;;;;;;5045796;28;20041;-79
2023/04/18 05:43:52;;;;;;;7.78;7.03;;;7.00;99.90;;;;;;5044600;28;20056;-79
2023/04/18 05:46:17;;;;;;;11.45;8.20;;;6.90;99.90;;;;;;5046956;28;20055;-78
2023/04/18 05:48:43;;;;;;;10.32;7.80;;;6.90;99.90;;;;;;5044753;28;20052;-79
2023/04/18 05:51:08;;;;;;;7.97;7.13;;;7.00;99.90;;;;;;5065782;28;20044;-80
2023/04/18 05:53:34;;;;;;;10.63;7.78;;;7.50;99.90;;;;;;5051405;28;20131;-80
2023/04/18 05:56:00;;;;;;;13.57;8.02;;;7.00;99.90;;;;;;5041431;28;20052;-78
2023/04/18 05:58:27;;;;;;;9.68;8.35;;;7.00;99.90;;;;;;5040422;28;20079;-78
2023/04/18 06:00:53;;;;;;;9.35;7.57;;;7.20;99.90;;;;;;5039673;28;20056;-78
2023/04/18 06:03:18;;;;;;;12.90;8.30;;;7.10;99.90;;;;;;5039699;28;20037;-78
2023/04/18 06:05:44;;;;;;;10.93;7.80;;;7.10;99.90;;;;;;5039409;28;20062;-78
2023/04/18 06:08:10;;;;;;;10.95;8.13;;;7.10;99.90;;;;;;5043064;28;20052;-78
2023/04/18 06:10:35;;;;;;;9.32;8.30;;;7.10;99.90;;;;;;5042687;28;20040;-79
2023/04/18 06:13:01;;;;;;;8.77;7.57;;;7.10;99.90;;;;;;5044525;28;20032;-78
2023/04/18 06:15:27;;;;;;;9.05;8.15;;;7.20;99.90;;;;;;5044627;28;20040;-79
2023/04/18 06:17:52;;;;;;;12.35;8.95;;;7.20;99.90;;;;;;5045695;28;20053;-79
2023/04/18 06:20:18;;;;;;;12.15;8.20;;;7.20;99.90;;;;;;5050747;28;20069;-78
2023/04/18 06:22:43;;;;;;;14.50;8.60;;;7.20;99.90;;;;;;5052917;28;20037;-78
2023/04/18 06:25:09;;;;;;;9.77;7.95;;;7.30;99.90;;;;;;5052583;28;20051;-78
2023/04/18 06:27:36;;;;;;;9.98;8.35;;;7.30;99.90;;;;;;5049027;28;20040;-79
2023/04/18 06:30:02;;;;;;;10.18;8.85;;;7.30;99.90;;;;;;5048018;28;20201;-79
2023/04/18 06:32:27;;;;;;;11.95;8.70;;;7.60;99.90;;;;;;5049143;28;20155;-79
2023/04/18 06:34:53;;;;;;;10.88;7.93;;;7.60;99.90;;;;;;5041313;28;20040;-79
2023/04/18 06:37:19;;;;;;;9.02;8.02;;;7.70;99.90;;;;;;5042924;28;20364;-79
2023/04/18 06:39:44;;;;;;;11.68;8.75;;;7.70;99.90;;;;;;5046866;28;20041;-78
2023/04/18 06:42:10;;;;;;;14.50;8.95;;;7.70;99.90;;;;;;5046412;28;20045;-79
2023/04/18 06:44:36;;;;;;;9.43;7.57;;;7.70;99.90;;;;;;5039182;28;20045;-78
2023/04/18 06:47:02;;;;;;;13.70;7.60;;;7.70;99.90;;;;;;5049696;28;20075;-79
2023/04/18 06:49:27;;;;;;;12.93;8.80;;;7.70;99.90;;;;;;5040007;28;20045;-79
2023/04/18 06:51:53;;;;;;;10.27;7.82;;;7.70;99.90;;;;;;5046341;28;20075;-79
2023/04/18 06:54:18;;;;;;;9.50;7.50;;;7.70;99.90;;;;;;5043933;28;20120;-79
2023/04/18 06:56:47;;;;;;;9.68;8.13;;;7.80;99.90;;;;;;5044778;28;20071;-79
2023/04/18 06:59:12;;;;;;;10.43;8.15;;;7.90;99.90;;;;;;5059573;28;20041;-79
2023/04/18 07:01:42;;;;;;;8.60;6.95;;;8.00;99.90;;;;;;5044747;28;20055;-79
2023/04/18 07:04:08;;;;;;;9.02;7.53;;;8.00;99.90;;;;;;5061325;28;20534;-80
2023/04/18 07:06:34;;;;;;;10.98;7.78;;;8.20;99.90;;;;;;5042111;28;20037;-78
2023/04/18 07:09:00;;;;;;;9.85;7.20;;;8.20;99.90;;;;;;5044876;28;20119;-78
2023/04/18 07:11:26;;;;;;;8.95;7.28;;;8.20;99.90;;;;;;5047606;28;20555;-79
2023/04/18 07:13:52;;;;;;;7.63;6.63;;;8.20;99.90;;;;;;5042861;28;20090;-78
2023/04/18 07:16:18;;;;;;;12.18;7.47;;;8.20;99.90;;;;;;5042594;28;20060;-79
2023/04/18 07:18:43;;;;;;;8.05;6.53;;;8.30;99.90;;;;;;5043344;28;20123;-80
2023/04/18 07:21:09;;;;;;;10.18;7.25;;;8.30;99.90;;;;;;5042273;28;20084;-78
2023/04/18 07:23:35;;;;;;;8.55;6.47;;;8.30;99.90;;;;;;5040187;28;20036;-78
2023/04/18 07:26:01;;;;;;;10.80;7.00;;;8.30;99.90;;;;;;5056980;28;20115;-78
2023/04/18 07:28:27;;;;;;;7.25;5.97;;;8.30;99.90;;;;;;5043029;28;20487;-78
2023/04/18 07:30:54;;;;;;;6.95;6.15;;;8.50;99.90;;;;;;5041691;28;20041;-77
2023/04/18 07:33:20;;;;;;;10.55;5.90;;;8.50;99.90;;;;;;5041264;28;20123;-78
2023/04/18 07:35:45;;;;;;;9.88;6.07;;;8.60;99.90;;;;;;5043624;28;20136;-78
2023/04/18 07:38:11;;;;;;;8.90;6.05;;;8.80;99.90;;;;;;5043851;28;20045;-77
2023/04/18 07:40:37;;;;;;;6.10;5.00;;;9.20;99.90;;;;;;5044050;28;20041;-78
2023/04/18 07:43:03;;;;;;;9.05;5.82;;;9.30;99.90;;;;;;5041525;28;20665;-78
2023/04/18 07:45:28;;;;;;;7.55;6.75;;;9.50;99.90;;;;;;5043030;28;20044;-78
2023/04/18 07:47:54;;;;;;;9.02;6.05;;;9.40;99.90;;;;;;5043663;28;20128;-78
2023/04/18 07:50:20;;;;;;;7.05;5.47;;;9.70;99.90;;;;;;5041012;28;20040;-78
2023/04/18 07:52:47;;;;;;;6.38;5.10;;;10.00;99.90;;;;;;5043040;28;20395;-78
2023/04/18 07:55:13;;;;;;;7.30;5.47;;;10.80;99.90;;;;;;5027170;28;20439;-78
2023/04/18 07:57:42;;;;;;;8.77;5.47;;;10.60;99.90;;;;;;5043243;28;20098;-78
2023/04/18 08:00:09;;;;;;;5.78;4.93;;;10.60;99.90;;;;;;5059478;28;20049;-77
2023/04/18 08:02:35;;;;;;;7.43;5.22;;;10.70;99.90;;;;;;5035838;28;20045;-77
2023/04/18 08:05:00;;;;;;;6.78;5.32;;;10.80;99.90;;;;;;5042895;28;20043;-77
2023/04/18 08:07:26;;;;;;;7.40;5.93;;;10.70;99.90;;;;;;5043307;28;20453;-77
2023/04/18 08:09:52;;;;;;;6.03;5.43;;;10.60;99.90;;;;;;5040888;28;20045;-78
2023/04/18 08:12:17;;;;;;;6.57;5.85;;;10.60;99.90;;;;;;5041548;28;20048;-78
2023/04/18 08:14:43;;;;;;;7.47;6.25;;;10.60;99.90;;;;;;5041276;28;20045;-78
2023/04/18 08:17:08;;;;;;;9.85;5.95;;;10.70;99.90;;;;;;5042466;28;20053;-77
2023/04/18 08:19:34;;;;;;;8.02;6.07;;;10.80;99.90;;;;;;5044209;28;20048;-78
2023/04/18 08:22:08;;;;;;;6.97;5.70;;;10.80;99.90;;;;;;5049775;28;20065;-77
2023/04/18 08:24:33;;;;;;;8.40;6.47;;;11.10;99.90;;;;;;5042533;28;20041;-77
2023/04/18 08:26:59;;;;;;;9.93;5.80;;;11.10;99.90;;;;;;5040537;28;20071;-77
2023/04/18 08:29:25;;;;;;;22.80;6.53;;;11.10;99.90;;;;;;5040075;28;20045;-77
2023/04/18 08:31:50;;;;;;;7.55;6.20;;;10.90;99.90;;;;;;5045667;28;20072;-77
2023/04/18 08:34:17;;;;;;;8.38;6.43;;;10.70;99.90;;;;;;5044632;28;20651;-77
2023/04/18 08:36:43;;;;;;;8.18;6.50;;;10.50;99.90;;;;;;5040226;28;20648;-77
2023/04/18 08:39:08;;;;;;;9.77;6.78;;;10.50;99.90;;;;;;5041006;28;20037;-77
2023/04/18 08:41:39;;;;;;;7.75;6.80;;;10.40;99.90;;;;;;5042921;28;20037;-77
2023/04/18 08:44:05;;;;;;;8.63;6.40;;;10.30;99.90;;;;;;5041360;28;20045;-77
2023/04/18 08:46:34;;;;;;;9.35;7.75;;;10.20;99.90;;;;;;5040698;28;20041;-77
2023/04/18 08:49:03;;;;;;;13.15;6.50;;;10.10;99.90;;;;;;5042306;28;20040;-77
2023/04/18 08:51:31;;;;;;;8.45;6.75;;;10.00;99.90;;;;;;5040456;28;20059;-77
2023/04/18 08:54:03;;;;;;;8.57;6.13;;;10.20;99.90;;;;;;5038673;28;20044;-77
2023/04/18 08:56:32;;;;;;;8.20;6.80;;;10.20;99.90;;;;;;5039288;28;20087;-77
2023/04/18 08:58:59;;;;;;;6.65;6.00;;;10.30;99.90;;;;;;5038921;28;20041;-77
2023/04/18 09:01:57;;;;;;;7.88;6.53;;;10.30;99.90;;;;;;5042656;28;20558;-78
2023/04/18 09:04:47;;;;;;;8.73;6.47;;;10.40;99.90;;;;;;5041238;28;20092;-78
2023/04/18 09:07:27;;;;;;;7.07;5.88;;;10.50;99.90;;;;;;5057944;28;20048;-77
2023/04/18 09:09:56;;;;;;;8.65;6.57;;;10.60;99.90;;;;;;5043613;28;20042;-78
2023/04/18 09:12:26;;;;;;;10.45;5.20;;;11.00;99.90;;;;;;5044537;28;20046;-77
2023/04/18 09:14:55;;;;;;;6.82;6.10;;;11.10;99.90;;;;;;5041291;28;20091;-77
2023/04/18 09:17:41;;;;;;;5.68;4.97;;;10.90;99.90;;;;;;5040248;28;20049;-77
2023/04/18 09:20:33;;;;;;;7.25;5.07;;;10.80;99.90;;;;;;5058936;28;20065;-77
2023/04/18 09:23:02;;;;;;;5.97;5.38;;;11.00;99.90;;;;;;5042098;28;20167;-77
2023/04/18 09:25:41;;;;;;;7.45;5.97;;;11.00;99.90;;;;;;5040627;28;20096;-78
2023/04/18 09:28:30;;;;;;;5.88;5.25;;;11.10;99.90;;;;;;5039638;28;20127;-77
2023/04/18 09:31:10;;;;;;;8.40;5.25;;;11.30;99.90;;;;;;5040944;28;20047;-78
2023/04/18 09:33:36;;;;;;;5.82;4.82;;;11.50;99.90;;;;;;5043636;28;20076;-77
2023/04/18 09:36:22;;;;;;;5.60;5.00;;;11.60;99.90;;;;;;5039721;28;20100;-78
2023/04/18 09:38:49;;;;;;;6.47;5.87;;;11.70;99.90;;;;;;5032432;28;20174;-77
2023/04/18 09:41:16;;;;;;;5.05;4.53;;;12.00;99.90;;;;;;5076374;28;21090;-78
2023/04/18 09:43:45;;;;;;;5.13;4.63;;;12.40;99.90;;;;;;5045568;28;20076;-78
2023/04/18 09:46:12;;;;;;;7.47;5.50;;;12.50;99.90;;;;;;5046702;28;20055;-78
2023/04/18 09:48:38;;;;;;;5.95;4.68;;;12.60;99.90;;;;;;5047389;28;20162;-77
2023/04/18 09:51:10;;;;;;;5.82;5.22;;;12.40;99.90;;;;;;5047737;28;20085;-78
2023/04/18 09:53:40;;;;;;;7.75;5.80;;;12.40;99.90;;;;;;5045034;28;20049;-78
2023/04/18 09:56:08;;;;;;;7.63;5.43;;;12.60;99.90;;;;;;5043886;28;20047;-77
2023/04/18 09:58:39;;;;;;;6.85;5.70;;;12.80;99.90;;;;;;5045811;28;20051;-77
2023/04/18 10:01:06;;;;;;;5.70;5.15;;;12.70;99.90;;;;;;5042753;28;20132;-77
2023/04/18 10:03:36;;;;;;;6.70;6.00;;;12.50;99.90;;;;;;5047645;28;20094;-78
2023/04/18 10:06:02;;;;;;;5.93;5.18;;;12.50;99.90;;;;;;5047003;28;20863;-79
2023/04/18 10:08:28;;;;;;;10.23;6.65;;;12.70;99.90;;;;;;5053752;28;20102;-78
2023/04/18 10:10:55;;;;;;;6.63;6.03;;;12.70;99.90;;;;;;5053672;28;20348;-79
2023/04/18 10:13:22;;;;;;;6.78;6.07;;;12.50;99.90;;;;;;5054462;28;20060;-79
2023/04/18 10:15:48;;;;;;;5.90;4.95;;;12.20;99.90;;;;;;5054520;28;20045;-79
2023/04/18 10:18:15;;;;;;;5.78;5.18;;;12.40;99.90;;;;;;5047103;28;20037;-78
2023/04/18 10:20:41;;;;;;;6.60;4.95;;;12.70;99.90;;;;;;5051247;28;20037;-78
2023/04/18 10:23:33;;;;;;;8.20;4.53;;;12.90;99.90;;;;;;5041364;28;20037;-78
2023/04/18 10:26:00;;;;;;;6.82;5.43;;;12.90;99.90;;;;;;5039630;28;20079;-78
2023/04/18 10:28:26;;;;;;;5.53;5.03;;;13.20;99.90;;;;;;5033824;28;20515;-78
2023/04/18 10:31:03;;;;;;;6.20;4.68;;;13.40;99.90;;;;;;5067337;28;20406;-78
2023/04/18 10:33:31;;;;;;;6.15;5.32;;;13.30;99.90;;;;;;5038943;28;20161;-79
2023/04/18 10:36:11;;;;;;;9.07;4.88;;;13.40;99.90;;;;;;5041889;28;20042;-79
2023/04/18 10:38:45;;;;;;;4.72;4.25;;;13.70;99.90;;;;;;5047016;28;20064;-78
2023/04/18 10:41:20;;;;;;;4.72;4.32;;;13.70;99.90;;;;;;5049551;28;20037;-78
2023/04/18 10:44:04;;;;;;;7.68;4.72;;;13.40;99.90;;;;;;5047305;28;20037;-78
2023/04/18 10:46:30;;;;;;;5.93;4.70;;;13.20;99.90;;;;;;5028931;28;20047;-79
2023/04/18 10:49:15;;;;;;;7.50;4.78;;;13.20;99.90;;;;;;5047766;28;20124;-78
2023/04/18 10:51:45;;;;;;;4.28;3.88;;;13.20;99.90;;;;;;5045829;28;20048;-77
2023/04/18 10:54:18;;;;;;;4.53;4.10;;;12.80;99.90;;;;;;5041536;28;20511;-78
2023/04/18 10:56:54;;;;;;;6.25;4.63;;;12.80;99.90;;;;;;5049811;28;20051;-78
2023/04/18 10:59:25;;;;;;;5.45;4.85;;;13.00;99.90;;;;;;5050092;28;20037;-78
2023/04/18 11:02:23;;;;;;;4.82;4.32;;;13.10;99.90;;;;;;5050086;28;20044;-77
2023/04/18 11:04:56;;;;;;;7.25;4.60;;;13.30;99.90;;;;;;5047302;28;20061;-78
2023/04/18 11:07:49;;;;;;;4.43;3.83;;;13.50;99.90;;;;;;5047914;28;20138;-78
2023/04/18 11:10:24;;;;;;;5.15;3.80;;;13.50;99.90;;;;;;5052582;28;20041;-78
2023/04/18 11:12:51;;;;;;;4.47;4.07;;;13.40;99.90;;;;;;5052058;28;20045;-78
2023/04/18 11:15:23;;;;;;;5.13;4.28;;;13.80;99.90;;;;;;5047405;28;20098;-79
2023/04/18 11:17:59;;;;;;;5.45;4.05;;;14.00;99.90;;;;;;5031472;28;20045;-78
2023/04/18 11:20:25;;;;;;;4.95;4.45;;;14.10;99.90;;;;;;5051920;28;20041;-77
2023/04/18 11:22:59;;;;;;;5.13;4.72;;;13.80;99.90;;;;;;5048278;28;20120;-78
2023/04/18 11:25:27;;;;;;;5.30;4.50;;;14.00;99.90;;;;;;5050629;28;20629;-79
2023/04/18 11:27:54;;;;;;;6.72;4.22;;;13.90;99.90;;;;;;5033834;28;20037;-79
2023/04/18 11:30:20;;;;;;;5.43;4.57;;;14.10;99.90;;;;;;5053992;28;20067;-78
2023/04/18 11:32:46;;;;;;;6.00;4.47;;;14.00;99.90;;;;;;5050891;28;20117;-79
2023/04/18 11:35:13;;;;;;;7.20;4.40;;;14.00;99.90;;;;;;5053973;28;20037;-79
2023/04/18 11:37:40;;;;;;;6.55;4.63;;;14.40;99.90;;;;;;5066142;28;20100;-79
2023/04/18 11:40:08;;;;;;;6.32;4.65;;;14.20;99.90;;;;;;5046393;28;20053;-79
2023/04/18 11:42:36;;;;;;;7.70;4.93;;;14.40;99.90;;;;;;5049524;28;20112;-79
2023/04/18 11:45:02;;;;;;;7.03;5.90;;;14.50;99.90;;;;;;5051876;28;20038;-79
2023/04/18 11:47:33;;;;;;;8.45;6.32;;;14.60;99.90;;;;;;5044826;28;20049;-78
2023/04/18 11:50:07;;;;;;;8.43;5.78;;;14.60;99.90;;;;;;5049830;28;20450;-79
2023/04/18 11:52:34;;;;;;;7.68;5.35;;;14.40;99.90;;;;;;5045029;28;20037;-80
2023/04/18 11:55:17;;;;;;;8.55;5.72;;;14.00;99.90;;;;;;5055934;28;20127;-79
2023/04/18 11:57:50;;;;;;;8.25;5.13;;;13.70;99.90;;;;;;5044591;28;20033;-79
2023/04/18 12:00:37;;;;;;;8.45;6.43;;;13.60;99.90;;;;;;5024304;28;20368;-81
2023/04/18 12:03:14;;;;;;;11.32;6.40;;;13.50;99.90;;;;;;5041630;28;20040;-78
2023/04/18 12:05:41;;;;;;;8.07;6.07;;;13.30;99.90;;;;;;5071431;28;20109;-80
2023/04/18 12:08:12;;;;;;;7.32;5.80;;;13.50;99.90;;;;;;5041294;28;20036;-80
2023/04/18 12:10:56;;;;;;;7.82;6.65;;;13.70;99.90;;;;;;5048872;28;20745;-80
2023/04/18 12:13:54;;;;;;;9.95;5.43;;;14.00;99.90;;;;;;5030887;28;20032;-80
2023/04/18 12:16:20;;;;;;;7.75;6.18;;;14.00;99.90;;;;;;5027785;28;20091;-78
2023/04/18 12:18:46;;;;;;;8.85;5.53;;;14.10;99.90;;;;;;5061382;28;20071;-79
2023/04/18 12:21:12;;;;;;;10.40;5.65;;;14.00;99.90;;;;;;5044791;28;20130;-79
2023/04/18 12:23:44;;;;;;;6.72;5.63;;;14.20;99.90;;;;;;5032796;28;20029;-79
2023/04/18 12:26:17;;;;;;;7.50;5.60;;;14.30;99.90;;;;;;5044719;28;20096;-80
2023/04/18 12:28:49;;;;;;;6.93;5.82;;;14.40;99.90;;;;;;5047860;28;20040;-79
2023/04/18 12:31:15;;;;;;;7.65;6.25;;;14.20;99.90;;;;;;5048155;28;20045;-78
2023/04/18 12:33:41;;;;;;;6.22;5.63;;;14.30;99.90;;;;;;5048208;28;20111;-78
2023/04/18 12:36:07;;;;;;;13.98;5.88;;;14.00;99.90;;;;;;5046074;28;20043;-78
2023/04/18 12:38:34;;;;;;;8.93;5.90;;;14.00;99.90;;;;;;5048136;28;20732;-78
2023/04/18 12:40:59;;;;;;;8.13;6.40;;;14.00;99.90;;;;;;5046656;28;20073;-79
2023/04/18 12:43:25;;;;;;;7.90;5.93;;;14.10;99.90;;;;;;5046166;28;20071;-80
2023/04/18 12:45:51;;;;;;;12.55;6.93;;;14.10;99.90;;;;;;5047592;28;20068;-79
2023/04/18 12:48:17;;;;;;;10.40;6.55;;;14.20;99.90;;;;;;5031714;28;20072;-79
2023/04/18 12:50:43;;;;;;;6.15;5.55;;;14.10;99.90;;;;;;5044954;28;20123;-80